createdAt,value
2018-12-25T00:03:53.958Z,40.6
2018-12-25T00:18:23.376Z,39
2018-12-25T00:33:53.263Z,36.3
2018-12-25T00:48:20.434Z,34.4
2018-12-25T01:03:25.722Z,32.6
2018-12-25T01:18:57.277Z,30.5
2018-12-25T01:34:11.682Z,28.6
2018-12-25T01:48:24.663Z,26.5
2018-12-25T02:03:47.490Z,25.3
2018-12-25T02:19:03.169Z,24.6
2018-12-25T02:33:20.678Z,23.1
2018-12-25T02:48:55.710Z,22.1
2018-12-25T03:04:08.480Z,20.7
2018-12-25T03:18:57.598Z,19.8
2018-12-25T03:33:23.544Z,18.5
2018-12-25T03:48:27.026Z,18.4
2018-12-25T04:03:24.766Z,17.7
2018-12-25T04:18:31.820Z,16.2
2018-12-25T04:34:00.349Z,15.7
2018-12-25T04:49:00.886Z,15
2018-12-25T05:04:06.442Z,14.5
2018-12-25T05:19:02.951Z,13.8
2018-12-25T05:34:10.456Z,13.6
2018-12-25T05:49:18.228Z,12.7
2018-12-25T06:04:13.633Z,12.3
2018-12-25T06:19:24.809Z,10.6
2018-12-25T06:34:29.005Z,10.8
2018-12-25T06:48:35.513Z,10.4
2018-12-25T07:03:45.566Z,9.8
2018-12-25T07:18:50.155Z,9.5
2018-12-25T07:33:57.946Z,8.6
2018-12-25T07:49:11.813Z,8.6
2018-12-25T08:04:23.166Z,8.2
2018-12-25T08:19:25.281Z,8.2
2018-12-25T08:34:17.910Z,8.8
2018-12-25T08:48:59.088Z,7.9
2018-12-25T09:03:53.330Z,9.6
2018-12-25T09:19:24.308Z,10.6
2018-12-25T09:34:02.827Z,9
2018-12-25T09:49:31.183Z,6.5
2018-12-25T10:04:06.271Z,5.9
2018-12-25T10:18:48.701Z,4.9
2018-12-25T10:33:37.265Z,4.8
2018-12-25T10:49:23.785Z,4.4
2018-12-25T11:04:02.779Z,4.3
2018-12-25T11:19:09.516Z,4.9
2018-12-25T11:34:15.672Z,4.8
2018-12-25T11:49:22.235Z,4.8
2018-12-25T12:04:21.897Z,7.6
2018-12-25T12:18:54.100Z,5.4
2018-12-25T12:33:50.715Z,4.3
